Time;durP1;ratioP1;P1;durP2;ratioP2;P2;SDS_P1;SDS_P2;PMS_P1;PMS_P2;Temp;Humidity;BMP_temperature;BMP_pressure;BME280_temperature;BME280_humidity;BME280_pressure;Samples;Min_cycle;Max_cycle;Signal;HPM_P1;HPM_P2
2021/11/04 00:00:23;;;;;;;103.95;32.90;;;;;;;;;;5023070;28;20517;-76
2021/11/04 00:02:51;;;;;;;110.70;34.35;;;;;;;;;;5020003;28;20156;-76
2021/11/04 00:05:18;;;;;;;102.13;33.45;;;;;;;;;;5024317;28;20494;-77
2021/11/04 00:07:48;;;;;;;113.72;35.22;;;;;;;;;;5048370;28;20160;-77
2021/11/04 00:10:16;;;;;;;100.68;30.63;;;;;;;;;;5023448;28;20045;-77
2021/11/04 00:12:43;;;;;;;111.88;33.35;;;;;;;;;;5048650;28;20087;-77
2021/11/04 00:15:11;;;;;;;107.75;32.88;;;;;;;;;;5020345;28;20067;-77
2021/11/04 00:17:38;;;;;;;115.38;34.17;;;;;;;;;;5028963;28;20144;-77
2021/11/04 00:20:06;;;;;;;114.95;32.63;;;;;;;;;;5019447;28;20163;-77
2021/11/04 00:22:33;;;;;;;103.95;31.30;;;;;;;;;;5045853;28;20140;-78
2021/11/04 00:25:01;;;;;;;104.65;32.88;;;;;;;;;;5019562;28;20581;-78
2021/11/04 00:27:28;;;;;;;103.15;30.80;;;;;;;;;;5030133;28;20103;-79
2021/11/04 00:29:55;;;;;;;108.53;31.63;;;;;;;;;;5018268;28;20914;-79
2021/11/04 00:32:22;;;;;;;102.78;31.88;;;;;;;;;;5040574;28;20055;-79
2021/11/04 00:34:49;;;;;;;108.25;32.75;;;;;;;;;;5018213;28;20135;-79
2021/11/04 00:37:16;;;;;;;109.20;31.20;;;;;;;;;;5023098;28;20525;-79
2021/11/04 00:39:44;;;;;;;103.30;30.88;;;;;;;;;;5016770;28;20131;-78
2021/11/04 00:42:11;;;;;;;117.93;32.40;;;;;;;;;;5025548;28;20092;-79
2021/11/04 00:44:38;;;;;;;112.28;32.50;;;;;;;;;;5034734;28;20108;-79
2021/11/04 00:47:05;;;;;;;120.30;34.28;;;;;;;;;;5012101;28;20136;-79
2021/11/04 00:49:32;;;;;;;109.47;30.27;;;;;;;;;;5031988;28;20089;-79
2021/11/04 00:52:00;;;;;;;108.43;30.27;;;;;;;;;;5013956;28;20099;-79
2021/11/04 00:54:27;;;;;;;105.13;29.77;;;;;;;;;;5029808;28;20140;-79
2021/11/04 00:56:54;;;;;;;120.97;32.45;;;;;;;;;;5032230;28;20096;-80
2021/11/04 00:59:21;;;;;;;116.50;31.02;;;;;;;;;;5030958;28;20080;-80
2021/11/04 01:01:49;;;;;;;104.40;29.75;;;;;;;;;;5017955;28;20055;-79
2021/11/04 01:04:16;;;;;;;115.55;32.03;;;;;;;;;;5012818;28;20085;-80
2021/11/04 01:06:43;;;;;;;109.00;31.63;;;;;;;;;;5043076;28;20347;-80
2021/11/04 01:09:10;;;;;;;101.53;30.15;;;;;;;;;;5034373;28;20128;-80
2021/11/04 01:11:37;;;;;;;96.95;28.73;;;;;;;;;;5032291;28;20172;-80
2021/11/04 01:14:04;;;;;;;100.13;29.23;;;;;;;;;;5014579;28;20090;-79
2021/11/04 01:16:42;;;;;;;92.50;26.75;;;;;;;;;;5028906;28;20132;-79
2021/11/04 01:19:12;;;;;;;109.20;29.33;;;;;;;;;;5016141;28;20121;-89
2021/11/04 01:21:40;;;;;;;101.93;29.33;;;;;;;;;;5026861;28;20164;-88
2021/11/04 01:24:07;;;;;;;105.95;27.73;;;;;;;;;;5034209;28;20124;-88
2021/11/04 01:26:35;;;;;;;109.45;30.50;;;;;;;;;;5048912;28;20469;-89
2021/11/04 01:29:02;;;;;;;116.97;29.70;;;;;;;;;;5052978;28;20053;-89
2021/11/04 01:31:29;;;;;;;116.90;30.98;;;;;;;;;;5022126;28;20125;-89
2021/11/04 01:33:56;;;;;;;103.45;30.33;;;;;;;;;;5027243;28;20072;-89
2021/11/04 01:36:23;;;;;;;116.50;30.73;;;;;;;;;;5034335;28;20564;-89
2021/11/04 01:38:50;;;;;;;118.45;30.42;;;;;;;;;;5038595;28;20075;-89
2021/11/04 01:41:18;;;;;;;113.25;32.75;;;;;;;;;;5039956;28;20081;-89
2021/11/04 01:43:45;;;;;;;118.97;31.38;;;;;;;;;;5033021;28;20045;-88
2021/11/04 01:46:13;;;;;;;121.00;33.03;;;;;;;;;;5033895;28;20104;-89
2021/11/04 01:48:45;;;;;;;109.88;29.65;;;;;;;;;;5035198;28;20118;-88
2021/11/04 01:51:12;;;;;;;136.60;33.38;;;;;;;;;;5049523;28;20471;-88
2021/11/04 01:53:39;;;;;;;121.82;30.58;;;;;;;;;;5040120;28;20131;-89
2021/11/04 01:56:06;;;;;;;118.60;31.00;;;;;;;;;;5018296;28;20091;-89
2021/11/04 01:58:34;;;;;;;126.50;32.40;;;;;;;;;;5015289;28;20569;-88
2021/11/04 02:01:02;;;;;;;129.57;31.40;;;;;;;;;;5018699;28;20048;-89
2021/11/04 02:03:29;;;;;;;134.82;33.88;;;;;;;;;;5026188;28;20049;-89
2021/11/04 02:06:21;;;;;;;122.95;31.23;;;;;;;;;;5022804;28;20053;-90
2021/11/04 02:09:02;;;;;;;126.72;33.25;;;;;;;;;;5020215;28;20438;-90
2021/11/04 02:11:41;;;;;;;129.25;31.73;;;;;;;;;;5031913;28;20749;-90
2021/11/04 02:14:23;;;;;;;134.18;31.52;;;;;;;;;;5026234;28;20044;-89
2021/11/04 02:16:52;;;;;;;123.53;31.88;;;;;;;;;;5031229;28;20127;-89
2021/11/04 02:19:21;;;;;;;130.60;31.75;;;;;;;;;;5014951;28;20451;-90
2021/11/04 02:21:55;;;;;;;139.55;33.92;;;;;;;;;;5039166;28;20497;-89
2021/11/04 02:24:37;;;;;;;119.85;30.27;;;;;;;;;;5025951;28;20111;-90
2021/11/04 02:27:06;;;;;;;134.55;31.77;;;;;;;;;;5032242;28;20490;-90
2021/11/04 02:29:33;;;;;;;126.50;32.33;;;;;;;;;;5032132;28;20077;-90
2021/11/04 02:32:00;;;;;;;128.27;31.58;;;;;;;;;;5043976;28;20826;-89
2021/11/04 02:34:28;;;;;;;135.20;30.77;;;;;;;;;;5017795;28;20081;-89
2021/11/04 02:36:56;;;;;;;136.50;32.00;;;;;;;;;;5033716;28;20088;-89
2021/11/04 02:39:25;;;;;;;139.82;31.23;;;;;;;;;;5021889;28;20395;-89
2021/11/04 02:41:57;;;;;;;123.50;30.58;;;;;;;;;;5031000;28;20111;-88
2021/11/04 02:44:25;;;;;;;126.75;31.65;;;;;;;;;;5019229;28;20563;-88
2021/11/04 02:46:56;;;;;;;124.88;29.58;;;;;;;;;;5024662;28;20042;-89
2021/11/04 02:49:24;;;;;;;121.07;30.38;;;;;;;;;;5013793;28;20140;-89
2021/11/04 02:51:51;;;;;;;124.00;28.27;;;;;;;;;;5033063;28;20506;-89
2021/11/04 02:54:20;;;;;;;108.40;26.30;;;;;;;;;;5033295;28;20072;-88
2021/11/04 02:56:49;;;;;;;117.38;27.70;;;;;;;;;;5051318;28;20057;-89
2021/11/04 02:59:18;;;;;;;109.88;28.50;;;;;;;;;;5032897;28;20691;-88
2021/11/04 03:01:46;;;;;;;116.38;27.48;;;;;;;;;;5045973;28;20080;-89
2021/11/04 03:04:15;;;;;;;118.60;28.02;;;;;;;;;;5038220;28;20084;-89
2021/11/04 03:06:43;;;;;;;128.98;28.45;;;;;;;;;;5014375;28;20125;-89
2021/11/04 03:09:10;;;;;;;119.82;29.38;;;;;;;;;;5023311;28;20607;-89
2021/11/04 03:11:37;;;;;;;114.07;26.48;;;;;;;;;;5033701;28;20081;-89
2021/11/04 03:14:05;;;;;;;118.45;25.55;;;;;;;;;;5028640;28;20144;-89
2021/11/04 03:16:37;;;;;;;109.07;27.35;;;;;;;;;;5031876;28;20068;-90
2021/11/04 03:19:06;;;;;;;110.72;26.42;;;;;;;;;;5034545;28;20089;-90
2021/11/04 03:21:36;;;;;;;114.35;26.73;;;;;;;;;;5015467;28;20116;-89
2021/11/04 03:24:04;;;;;;;126.30;26.77;;;;;;;;;;5019514;28;20065;-89
2021/11/04 03:26:31;;;;;;;128.68;29.30;;;;;;;;;;5054957;28;20145;-88
2021/11/04 03:28:59;;;;;;;146.43;26.67;;;;;;;;;;5054572;28;20845;-89
2021/11/04 03:31:26;;;;;;;122.95;27.42;;;;;;;;;;5026167;28;20136;-89
2021/11/04 03:33:55;;;;;;;133.73;30.45;;;;;;;;;;5028089;28;20144;-89
2021/11/04 03:36:22;;;;;;;133.23;29.33;;;;;;;;;;5036836;28;20565;-89
2021/11/04 03:38:50;;;;;;;136.27;29.48;;;;;;;;;;5024400;28;20494;-89
2021/11/04 03:41:20;;;;;;;131.90;30.77;;;;;;;;;;5037310;28;20118;-88
2021/11/04 03:43:48;;;;;;;146.68;31.05;;;;;;;;;;5035633;28;20073;-89
2021/11/04 03:46:15;;;;;;;149.73;32.22;;;;;;;;;;5039473;28;20136;-89
2021/11/04 03:48:43;;;;;;;130.93;30.02;;;;;;;;;;5034915;28;20053;-89
2021/11/04 03:51:12;;;;;;;144.18;33.33;;;;;;;;;;5035288;28;20143;-88
2021/11/04 03:53:40;;;;;;;158.65;33.38;;;;;;;;;;5027058;28;20056;-88
2021/11/04 03:56:11;;;;;;;147.20;31.55;;;;;;;;;;5036383;28;20136;-90
2021/11/04 03:58:39;;;;;;;164.43;35.28;;;;;;;;;;5024687;28;20136;-88
2021/11/04 04:01:07;;;;;;;152.98;33.35;;;;;;;;;;5053133;28;20083;-89
2021/11/04 04:03:36;;;;;;;171.80;37.20;;;;;;;;;;5028051;28;20040;-89
2021/11/04 04:06:04;;;;;;;189.98;38.28;;;;;;;;;;5032559;28;20067;-89
2021/11/04 04:08:34;;;;;;;178.60;36.90;;;;;;;;;;5065035;28;20442;-88
2021/11/04 04:11:02;;;;;;;168.90;37.15;;;;;;;;;;5054101;28;20088;-89
2021/11/04 04:13:29;;;;;;;191.07;39.28;;;;;;;;;;5016594;28;20568;-89
2021/11/04 04:15:57;;;;;;;178.07;38.47;;;;;;;;;;5050450;28;20049;-88
2021/11/04 04:18:24;;;;;;;174.02;37.13;;;;;;;;;;5019633;28;20045;-88
2021/11/04 04:20:51;;;;;;;198.63;39.85;;;;;;;;;;5018850;28;20124;-88
2021/11/04 04:23:19;;;;;;;207.90;43.00;;;;;;;;;;5040745;28;20123;-88
2021/11/04 04:25:46;;;;;;;195.95;40.75;;;;;;;;;;5028923;28;20085;-88
2021/11/04 04:28:20;;;;;;;176.57;40.53;;;;;;;;;;5044404;28;20111;-88
2021/11/04 04:30:52;;;;;;;195.60;41.03;;;;;;;;;;5052054;28;20073;-88
2021/11/04 04:33:23;;;;;;;193.00;41.25;;;;;;;;;;5033410;28;20132;-88
2021/11/04 04:35:51;;;;;;;185.00;40.33;;;;;;;;;;5026655;28;20072;-88
2021/11/04 04:38:20;;;;;;;184.38;43.92;;;;;;;;;;5020919;28;20081;-88
2021/11/04 04:40:47;;;;;;;203.60;42.38;;;;;;;;;;5025089;28;20080;-88
2021/11/04 04:43:14;;;;;;;201.40;42.35;;;;;;;;;;5056719;28;20049;-88
2021/11/04 04:45:43;;;;;;;198.50;42.30;;;;;;;;;;5027420;28;20120;-86
2021/11/04 04:48:13;;;;;;;186.77;40.42;;;;;;;;;;5026584;28;20489;-86
2021/11/04 04:50:41;;;;;;;189.82;40.95;;;;;;;;;;5042018;28;20133;-86
2021/11/04 04:53:08;;;;;;;187.50;40.38;;;;;;;;;;5033502;28;20157;-86
2021/11/04 04:55:36;;;;;;;174.38;41.88;;;;;;;;;;5039248;28;20409;-86
2021/11/04 04:58:03;;;;;;;181.05;41.78;;;;;;;;;;5048486;28;20072;-86
2021/11/04 05:00:30;;;;;;;164.82;42.35;;;;;;;;;;5034596;28;20768;-86
2021/11/04 05:02:57;;;;;;;181.52;43.35;;;;;;;;;;5030523;28;20080;-86
2021/11/04 05:05:25;;;;;;;161.57;40.72;;;;;;;;;;5038913;28;20430;-85
2021/11/04 05:07:52;;;;;;;181.77;41.63;;;;;;;;;;5018132;28;20049;-86
2021/11/04 05:10:19;;;;;;;174.45;41.15;;;;;;;;;;5032361;28;20136;-86
2021/11/04 05:12:46;;;;;;;163.27;39.75;;;;;;;;;;5048305;28;20095;-85
2021/11/04 05:15:14;;;;;;;171.13;41.55;;;;;;;;;;5052436;28;20084;-85
2021/11/04 05:17:41;;;;;;;172.18;41.30;;;;;;;;;;5020523;28;20824;-85
2021/11/04 05:20:09;;;;;;;168.80;40.58;;;;;;;;;;5014839;28;20077;-85
2021/11/04 05:22:37;;;;;;;182.70;42.88;;;;;;;;;;5044166;28;20403;-88
2021/11/04 05:25:04;;;;;;;174.63;41.33;;;;;;;;;;5051320;28;20131;-87
2021/11/04 05:27:31;;;;;;;179.38;42.35;;;;;;;;;;5022101;28;20076;-88
2021/11/04 05:29:59;;;;;;;178.40;43.75;;;;;;;;;;5017752;28;20115;-88
2021/11/04 05:32:26;;;;;;;175.88;40.90;;;;;;;;;;5019968;28;20053;-88
2021/11/04 05:34:53;;;;;;;154.73;43.38;;;;;;;;;;5019778;28;20084;-88
2021/11/04 05:37:21;;;;;;;163.57;42.70;;;;;;;;;;5034137;28;20092;-85
2021/11/04 05:39:48;;;;;;;171.30;43.10;;;;;;;;;;5017432;28;20127;-86
2021/11/04 05:42:15;;;;;;;168.82;44.33;;;;;;;;;;5038778;28;20053;-85
2021/11/04 05:44:42;;;;;;;170.27;42.85;;;;;;;;;;5029445;28;20088;-85
2021/11/04 05:47:09;;;;;;;162.70;45.03;;;;;;;;;;5027417;28;20079;-85
2021/11/04 05:49:38;;;;;;;166.30;41.92;;;;;;;;;;5033336;28;20049;-85
2021/11/04 05:52:06;;;;;;;167.15;42.65;;;;;;;;;;5025744;28;20089;-85
2021/11/04 05:54:34;;;;;;;160.63;42.78;;;;;;;;;;5032649;28;20085;-85
2021/11/04 05:57:01;;;;;;;163.27;42.75;;;;;;;;;;5031939;28;20144;-86
2021/11/04 05:59:28;;;;;;;149.93;41.00;;;;;;;;;;5027810;28;20137;-86
2021/11/04 06:01:55;;;;;;;164.45;42.35;;;;;;;;;;5029740;28;20085;-85
2021/11/04 06:04:23;;;;;;;147.38;40.33;;;;;;;;;;5028290;28;20045;-84
2021/11/04 06:06:50;;;;;;;156.75;40.67;;;;;;;;;;5032544;28;20164;-85
2021/11/04 06:09:17;;;;;;;143.80;39.33;;;;;;;;;;5041752;28;20466;-83
2021/11/04 06:11:44;;;;;;;156.90;39.55;;;;;;;;;;5031565;28;20076;-84
2021/11/04 06:14:12;;;;;;;148.77;40.10;;;;;;;;;;5032943;28;20049;-83
2021/11/04 06:16:39;;;;;;;148.73;39.20;;;;;;;;;;5046535;28;20045;-83
2021/11/04 06:19:09;;;;;;;144.05;39.90;;;;;;;;;;5019855;28;20131;-85
2021/11/04 06:21:36;;;;;;;151.75;41.75;;;;;;;;;;5014486;28;20501;-84
2021/11/04 06:24:03;;;;;;;164.02;42.28;;;;;;;;;;5015171;28;20148;-86
2021/11/04 06:26:37;;;;;;;145.00;39.38;;;;;;;;;;5048578;28;20052;-85
2021/11/04 06:29:05;;;;;;;155.77;40.05;;;;;;;;;;5046187;28;20103;-84
2021/11/04 06:31:32;;;;;;;148.52;40.25;;;;;;;;;;5046037;28;20092;-86
2021/11/04 06:33:59;;;;;;;139.50;41.45;;;;;;;;;;5046547;28;20123;-86
2021/11/04 06:36:26;;;;;;;166.88;42.75;;;;;;;;;;5043200;28;20075;-83
2021/11/04 06:38:53;;;;;;;150.07;41.00;;;;;;;;;;5044620;28;20073;-82
2021/11/04 06:41:20;;;;;;;154.18;40.33;;;;;;;;;;5031475;28;20065;-80
2021/11/04 06:43:48;;;;;;;147.43;42.60;;;;;;;;;;5043353;28;20049;-82
2021/11/04 06:46:16;;;;;;;144.85;40.65;;;;;;;;;;5051628;28;20080;-83
2021/11/04 06:48:44;;;;;;;142.90;40.13;;;;;;;;;;5028281;28;20051;-83
2021/11/04 06:51:13;;;;;;;133.13;39.10;;;;;;;;;;5031531;28;20072;-84
2021/11/04 06:53:44;;;;;;;152.82;40.90;;;;;;;;;;5031441;28;20107;-83
2021/11/04 06:56:12;;;;;;;148.48;40.20;;;;;;;;;;5014164;28;20049;-83
2021/11/04 06:58:39;;;;;;;142.65;40.20;;;;;;;;;;5045533;28;20080;-83
2021/11/04 07:01:09;;;;;;;143.27;40.47;;;;;;;;;;5054677;28;20127;-83
2021/11/04 07:03:43;;;;;;;152.57;40.05;;;;;;;;;;5038719;28;20079;-83
2021/11/04 07:06:11;;;;;;;144.30;40.75;;;;;;;;;;5042420;28;20041;-83
2021/11/04 07:08:51;;;;;;;140.68;39.72;;;;;;;;;;5049056;28;20120;-83
2021/11/04 07:11:18;;;;;;;140.00;39.42;;;;;;;;;;5055303;28;20296;-83
2021/11/04 07:13:48;;;;;;;137.30;38.67;;;;;;;;;;5039203;28;20092;-86
2021/11/04 07:16:15;;;;;;;140.98;38.75;;;;;;;;;;5042844;28;20120;-86
2021/11/04 07:18:43;;;;;;;140.13;42.58;;;;;;;;;;5037275;28;20104;-85
2021/11/04 07:21:31;;;;;;;132.73;38.53;;;;;;;;;;5051953;28;20877;-85
2021/11/04 07:24:06;;;;;;;142.88;39.47;;;;;;;;;;5017696;28;20140;-85
2021/11/04 07:26:44;;;;;;;144.57;39.85;;;;;;;;;;5039595;28;20055;-83
2021/11/04 07:29:12;;;;;;;130.90;39.40;;;;;;;;;;5038644;28;20073;-83
2021/11/04 07:31:40;;;;;;;138.25;39.70;;;;;;;;;;5043825;28;20073;-84
2021/11/04 07:34:08;;;;;;;138.50;39.85;;;;;;;;;;5047296;28;20155;-83
2021/11/04 07:36:36;;;;;;;145.80;40.00;;;;;;;;;;5055224;28;20088;-83
2021/11/04 07:39:06;;;;;;;141.30;39.47;;;;;;;;;;5037518;28;20143;-83
2021/11/04 07:41:34;;;;;;;132.88;39.08;;;;;;;;;;5021473;28;20087;-83
2021/11/04 07:44:02;;;;;;;131.00;38.80;;;;;;;;;;5034846;28;20076;-83
2021/11/04 07:46:30;;;;;;;141.73;36.78;;;;;;;;;;5034088;28;20549;-83
2021/11/04 07:48:59;;;;;;;136.57;39.80;;;;;;;;;;5023175;28;20128;-83
2021/11/04 07:51:26;;;;;;;130.38;38.42;;;;;;;;;;5024936;28;20136;-83
2021/11/04 07:53:53;;;;;;;131.57;38.58;;;;;;;;;;5035060;28;20673;-83
2021/11/04 07:56:20;;;;;;;121.90;38.00;;;;;;;;;;5033158;28;20072;-83
2021/11/04 07:58:47;;;;;;;125.30;39.05;;;;;;;;;;5052133;28;20073;-83
2021/11/04 08:01:14;;;;;;;120.20;38.72;;;;;;;;;;5054927;28;20080;-84
2021/11/04 08:03:46;;;;;;;129.00;37.17;;;;;;;;;;5026754;28;20057;-83
2021/11/04 08:06:13;;;;;;;125.15;37.33;;;;;;;;;;5022111;28;20132;-83
2021/11/04 08:08:40;;;;;;;123.53;37.97;;;;;;;;;;5036504;28;20103;-84
2021/11/04 08:11:07;;;;;;;125.50;37.60;;;;;;;;;;5042132;28;20077;-84
2021/11/04 08:13:34;;;;;;;127.95;38.45;;;;;;;;;;5033836;28;20389;-83
2021/11/04 08:16:01;;;;;;;121.25;37.45;;;;;;;;;;5036885;28;20084;-83
2021/11/04 08:18:29;;;;;;;123.00;37.90;;;;;;;;;;5043598;28;20453;-84
2021/11/04 08:20:57;;;;;;;116.75;36.78;;;;;;;;;;5039810;28;20049;-83
2021/11/04 08:23:25;;;;;;;116.50;36.20;;;;;;;;;;5054363;28;20045;-85
2021/11/04 08:25:53;;;;;;;120.57;36.47;;;;;;;;;;5054479;28;20091;-84
2021/11/04 08:28:20;;;;;;;118.97;35.72;;;;;;;;;;5035971;28;20060;-84
2021/11/04 08:30:48;;;;;;;110.75;36.33;;;;;;;;;;5016904;28;20049;-82
2021/11/04 08:33:15;;;;;;;102.97;36.40;;;;;;;;;;5031003;28;20076;-85
2021/11/04 08:35:44;;;;;;;99.88;32.42;;;;;;;;;;5034219;28;20136;-85
2021/11/04 08:38:11;;;;;;;103.57;31.80;;;;;;;;;;5034960;28;20053;-86
2021/11/04 08:40:38;;;;;;;104.30;34.65;;;;;;;;;;5047596;28;20118;-85
2021/11/04 08:43:06;;;;;;;103.15;33.50;;;;;;;;;;5036662;28;20785;-84
2021/11/04 08:45:33;;;;;;;101.70;33.92;;;;;;;;;;5037810;28;20068;-85
2021/11/04 08:48:00;;;;;;;100.97;33.55;;;;;;;;;;5033906;28;20573;-83
2021/11/04 08:50:27;;;;;;;103.78;33.97;;;;;;;;;;5033531;28;20592;-86
2021/11/04 08:52:56;;;;;;;104.15;33.25;;;;;;;;;;5033260;28;20443;-78
2021/11/04 08:55:23;;;;;;;96.72;32.78;;;;;;;;;;5030774;28;20084;-77
2021/11/04 08:57:51;;;;;;;90.18;31.52;;;;;;;;;;5013229;28;20124;-78
2021/11/04 09:00:19;;;;;;;94.47;31.10;;;;;;;;;;5027361;28;20052;-77
2021/11/04 09:02:47;;;;;;;88.93;32.05;;;;;;;;;;5043949;28;20080;-78
2021/11/04 09:05:14;;;;;;;95.57;32.88;;;;;;;;;;5033041;28;20076;-77
2021/11/04 09:07:41;;;;;;;86.82;30.27;;;;;;;;;;5029587;28;20098;-78
2021/11/04 09:10:09;;;;;;;98.63;35.08;;;;;;;;;;5030759;28;20056;-78
2021/11/04 09:12:38;;;;;;;92.65;31.08;;;;;;;;;;5030788;28;20132;-77
2021/11/04 09:15:06;;;;;;;95.75;31.60;;;;;;;;;;5048625;28;20057;-78
2021/11/04 09:17:33;;;;;;;87.53;30.00;;;;;;;;;;5030495;28;20081;-77
2021/11/04 09:20:00;;;;;;;86.65;30.23;;;;;;;;;;5047265;28;20073;-77
2021/11/04 09:22:27;;;;;;;88.40;32.13;;;;;;;;;;5047501;28;20832;-77
2021/11/04 09:24:56;;;;;;;93.97;31.83;;;;;;;;;;5016300;28;20147;-77
2021/11/04 09:27:23;;;;;;;85.80;30.88;;;;;;;;;;5012626;28;20081;-78
2021/11/04 09:29:51;;;;;;;77.63;28.95;;;;;;;;;;5026709;28;20048;-77
2021/11/04 09:32:18;;;;;;;79.93;28.02;;;;;;;;;;5041787;28;20048;-77
2021/11/04 09:35:01;;;;;;;82.80;28.55;;;;;;;;;;5014008;28;20053;-77
2021/11/04 09:37:28;;;;;;;85.95;30.92;;;;;;;;;;5029895;28;20055;-77
2021/11/04 09:39:55;;;;;;;77.00;27.38;;;;;;;;;;5023031;28;20488;-77
2021/11/04 09:42:23;;;;;;;76.68;26.40;;;;;;;;;;5021144;28;20077;-77
2021/11/04 09:44:51;;;;;;;76.28;27.65;;;;;;;;;;5028440;28;20155;-77
2021/11/04 09:47:23;;;;;;;72.70;27.20;;;;;;;;;;5020680;28;20135;-77
2021/11/04 09:49:51;;;;;;;79.20;30.70;;;;;;;;;;5046937;28;20164;-77
2021/11/04 09:52:23;;;;;;;73.07;28.02;;;;;;;;;;5038447;28;20077;-77
2021/11/04 09:54:50;;;;;;;74.57;29.88;;;;;;;;;;5047636;28;20519;-77
2021/11/04 09:57:18;;;;;;;73.53;28.55;;;;;;;;;;5043806;28;20057;-77
2021/11/04 09:59:45;;;;;;;71.85;29.00;;;;;;;;;;5036101;28;20143;-78
2021/11/04 10:02:19;;;;;;;66.38;26.17;;;;;;;;;;5023871;28;20128;-77
2021/11/04 10:04:47;;;;;;;63.97;24.77;;;;;;;;;;5029595;28;20767;-77
2021/11/04 10:07:14;;;;;;;61.47;24.05;;;;;;;;;;5027454;28;20371;-77
2021/11/04 10:09:42;;;;;;;63.40;25.00;;;;;;;;;;5027174;28;20080;-77
2021/11/04 10:12:14;;;;;;;60.45;25.05;;;;;;;;;;5021160;28;20045;-77
2021/11/04 10:14:41;;;;;;;63.53;24.60;;;;;;;;;;5023995;28;20057;-77
2021/11/04 10:17:25;;;;;;;66.45;25.90;;;;;;;;;;5045711;28;20053;-77
2021/11/04 10:19:52;;;;;;;60.05;23.80;;;;;;;;;;5010374;28;20140;-77
2021/11/04 10:22:26;;;;;;;54.67;23.45;;;;;;;;;;5016556;28;20083;-77
2021/11/04 10:24:54;;;;;;;51.70;22.47;;;;;;;;;;5047528;28;20132;-78
2021/11/04 10:27:28;;;;;;;55.67;23.77;;;;;;;;;;5046686;28;20479;-77
2021/11/04 10:29:56;;;;;;;51.53;22.48;;;;;;;;;;5028995;28;20053;-78
2021/11/04 10:32:36;;;;;;;54.58;22.13;;;;;;;;;;5026865;28;20084;-77
2021/11/04 10:35:08;;;;;;;75.85;24.77;;;;;;;;;;5028930;28;20100;-77
2021/11/04 10:37:42;;;;;;;54.15;22.60;;;;;;;;;;5038174;28;20050;-77
2021/11/04 10:40:17;;;;;;;53.95;22.92;;;;;;;;;;5012857;28;20133;-77
2021/11/04 10:42:54;;;;;;;54.47;23.05;;;;;;;;;;5009465;28;20135;-77
2021/11/04 10:45:26;;;;;;;58.72;23.08;;;;;;;;;;5010064;28;20163;-76
2021/11/04 10:48:12;;;;;;;57.50;21.73;;;;;;;;;;5026734;28;20703;-77
2021/11/04 10:50:39;;;;;;;;;;;;;;;;;;5026312;28;20509;-77
2021/11/04 10:53:07;;;;;;;57.03;22.65;;;;;;;;;;5011690;28;20302;-77
2021/11/04 10:55:34;;;;;;;55.53;22.35;;;;;;;;;;5008451;28;20053;-77
2021/11/04 10:58:06;;;;;;;45.85;20.73;;;;;;;;;;5009162;28;20216;-77
2021/11/04 11:00:39;;;;;;;50.13;22.63;;;;;;;;;;5026341;28;20139;-77
2021/11/04 11:03:07;;;;;;;51.58;22.45;;;;;;;;;;5034663;28;20057;-77
2021/11/04 11:05:36;;;;;;;53.50;22.65;;;;;;;;;;5033923;28;20049;-77
2021/11/04 11:08:10;;;;;;;51.30;21.67;;;;;;;;;;5043047;28;20143;-77
2021/11/04 11:10:38;;;;;;;55.63;23.95;;;;;;;;;;5045834;28;20149;-77
2021/11/04 11:13:06;;;;;;;50.75;22.40;;;;;;;;;;5039561;28;20140;-77
2021/11/04 11:15:34;;;;;;;58.08;21.67;;;;;;;;;;5028363;28;20084;-77
2021/11/04 11:18:02;;;;;;;58.20;26.08;;;;;;;;;;5019375;28;20160;-77
2021/11/04 11:20:29;;;;;;;52.58;23.00;;;;;;;;;;5026288;28;20662;-77
2021/11/04 11:22:56;;;;;;;55.63;22.60;;;;;;;;;;5010697;28;20136;-78
2021/11/04 11:25:23;;;;;;;55.17;22.02;;;;;;;;;;5028153;28;20132;-77
2021/11/04 11:27:51;;;;;;;53.92;23.35;;;;;;;;;;5039801;28;20087;-77
2021/11/04 11:30:18;;;;;;;47.58;21.40;;;;;;;;;;5026149;28;20133;-77
2021/11/04 11:32:50;;;;;;;51.42;22.92;;;;;;;;;;5017848;28;20056;-77
2021/11/04 11:35:22;;;;;;;62.90;25.00;;;;;;;;;;5009471;28;20081;-77
2021/11/04 11:37:56;;;;;;;48.78;22.33;;;;;;;;;;5013114;28;20545;-79
2021/11/04 11:40:23;;;;;;;56.78;23.23;;;;;;;;;;5028186;28;20049;-79
2021/11/04 11:42:58;;;;;;;51.28;22.85;;;;;;;;;;5046652;28;20160;-79
2021/11/04 11:45:30;;;;;;;54.47;23.67;;;;;;;;;;5031406;28;20072;-79
2021/11/04 11:48:14;;;;;;;55.47;22.27;;;;;;;;;;5021060;28;20064;-79
2021/11/04 11:50:43;;;;;;;52.13;21.88;;;;;;;;;;5046965;28;20130;-79
2021/11/04 11:53:19;;;;;;;54.90;22.13;;;;;;;;;;5013078;28;20103;-79
2021/11/04 11:55:47;;;;;;;55.35;21.92;;;;;;;;;;5034067;28;20083;-79
2021/11/04 11:58:26;;;;;;;54.50;22.13;;;;;;;;;;5049975;28;20516;-80
2021/11/04 12:00:56;;;;;;;55.67;22.27;;;;;;;;;;5032096;28;20553;-79
2021/11/04 12:03:50;;;;;;;56.08;21.63;;;;;;;;;;5025517;28;20781;-79
2021/11/04 12:06:20;;;;;;;52.80;22.63;;;;;;;;;;5024997;28;20076;-80
2021/11/04 12:08:49;;;;;;;58.92;24.30;;;;;;;;;;5025055;28;20120;-80
2021/11/04 12:11:39;;;;;;;57.22;23.35;;;;;;;;;;5013989;28;20459;-80
2021/11/04 12:14:16;;;;;;;62.80;24.88;;;;;;;;;;5031082;28;20136;-80
2021/11/04 12:17:02;;;;;;;51.22;22.20;;;;;;;;;;5032827;28;20060;-80
2021/11/04 12:19:49;;;;;;;52.15;23.83;;;;;;;;;;5019744;28;20453;-80
2021/11/04 12:22:38;;;;;;;53.58;23.38;;;;;;;;;;5021715;28;20052;-80
2021/11/04 12:25:07;;;;;;;59.72;23.65;;;;;;;;;;5032722;28;20091;-80
2021/11/04 12:27:37;;;;;;;60.72;23.90;;;;;;;;;;5031128;28;20053;-81
2021/11/04 12:30:30;;;;;;;59.88;24.48;;;;;;;;;;5033510;28;20070;-85
2021/11/04 12:32:57;;;;;;;63.75;24.95;;;;;;;;;;5018979;28;20053;-85
2021/11/04 12:35:25;;;;;;;61.00;25.30;;;;;;;;;;5018355;28;20139;-86
2021/11/04 12:37:52;;;;;;;56.03;23.92;;;;;;;;;;5028957;28;20514;-86
2021/11/04 12:40:20;;;;;;;62.35;24.55;;;;;;;;;;5035916;28;20049;-86
2021/11/04 12:42:48;;;;;;;67.50;26.73;;;;;;;;;;5019263;28;20099;-86
2021/11/04 12:45:25;;;;;;;61.63;24.15;;;;;;;;;;5034412;28;20081;-86
2021/11/04 12:47:59;;;;;;;62.45;24.55;;;;;;;;;;5034423;28;20092;-86
2021/11/04 12:50:30;;;;;;;70.90;26.50;;;;;;;;;;5018859;28;20057;-87
2021/11/04 12:53:04;;;;;;;64.03;25.02;;;;;;;;;;5031208;28;20075;-87
2021/11/04 12:55:32;;;;;;;66.20;25.55;;;;;;;;;;5028232;28;20057;-87
2021/11/04 12:58:00;;;;;;;65.43;26.55;;;;;;;;;;5016319;28;20045;-87
2021/11/04 13:00:27;;;;;;;71.15;27.95;;;;;;;;;;5047795;28;20662;-88
2021/11/04 13:02:55;;;;;;;60.42;24.88;;;;;;;;;;5027649;28;20053;-88
2021/11/04 13:05:24;;;;;;;67.40;26.50;;;;;;;;;;5022839;28;20130;-79
2021/11/04 13:07:56;;;;;;;70.57;25.55;;;;;;;;;;5044819;28;20844;-85
2021/11/04 13:10:28;;;;;;;68.72;27.00;;;;;;;;;;5022201;28;20091;-86
2021/11/04 13:13:01;;;;;;;69.07;26.75;;;;;;;;;;5028700;28;20668;-87
2021/11/04 13:15:29;;;;;;;68.75;26.13;;;;;;;;;;5034592;28;20056;-86
2021/11/04 13:18:01;;;;;;;59.15;25.42;;;;;;;;;;5018420;28;20073;-86
2021/11/04 13:20:29;;;;;;;70.55;26.38;;;;;;;;;;5064652;28;20738;-87
2021/11/04 13:23:04;;;;;;;64.68;24.92;;;;;;;;;;5053277;28;20049;-86
2021/11/04 13:25:33;;;;;;;64.35;27.20;;;;;;;;;;5042341;28;20085;-87
2021/11/04 13:28:02;;;;;;;63.20;25.55;;;;;;;;;;5025581;28;20045;-87
2021/11/04 13:30:37;;;;;;;70.20;25.98;;;;;;;;;;5029606;28;20181;-87
2021/11/04 13:33:44;;;;;;;71.38;26.75;;;;;;;;;;5044479;28;20047;-87
2021/11/04 13:36:17;;;;;;;73.00;27.95;;;;;;;;;;5041318;28;20080;-86
2021/11/04 13:38:55;;;;;;;74.00;27.10;;;;;;;;;;5043210;28;20076;-85
2021/11/04 13:41:45;;;;;;;78.18;28.38;;;;;;;;;;5042440;28;20102;-87
2021/11/04 13:44:20;;;;;;;77.78;27.35;;;;;;;;;;5044813;28;20069;-87
2021/11/04 13:46:48;;;;;;;68.57;27.83;;;;;;;;;;5025045;28;20045;-87
2021/11/04 13:49:17;;;;;;;74.38;26.80;;;;;;;;;;5040299;28;20132;-87
2021/11/04 13:51:46;;;;;;;75.97;27.90;;;;;;;;;;5047102;28;20091;-87
2021/11/04 13:54:16;;;;;;;70.88;28.65;;;;;;;;;;5024233;28;20069;-87
2021/11/04 13:56:48;;;;;;;71.55;27.90;;;;;;;;;;5045321;28;20087;-87
2021/11/04 13:59:37;;;;;;;74.85;28.95;;;;;;;;;;5039782;28;20541;-87
2021/11/04 14:02:08;;;;;;;75.63;29.75;;;;;;;;;;5023139;28;20080;-87
2021/11/04 14:04:56;;;;;;;73.25;29.25;;;;;;;;;;5029604;28;20183;-87
2021/11/04 14:07:28;;;;;;;72.05;27.65;;;;;;;;;;5047796;28;20052;-87
2021/11/04 14:10:03;;;;;;;77.90;30.33;;;;;;;;;;5019641;28;20046;-88
2021/11/04 14:12:34;;;;;;;74.82;30.30;;;;;;;;;;5043163;28;20076;-89
2021/11/04 14:15:10;;;;;;;74.93;29.50;;;;;;;;;;5025370;28;20132;-89
2021/11/04 14:17:47;;;;;;;85.47;30.58;;;;;;;;;;5043507;28;20128;-90
2021/11/04 14:20:15;;;;;;;72.43;29.25;;;;;;;;;;5021854;28;20051;-89
2021/11/04 14:22:42;;;;;;;76.70;30.02;;;;;;;;;;5036405;28;20092;-89